createdAt,value
2022-11-27T00:01:22.472Z,26.27
2022-11-27T00:03:49.798Z,23.35
2022-11-27T00:06:19.404Z,25.25
2022-11-27T00:08:46.507Z,25.02
2022-11-27T00:11:19.448Z,24.98
2022-11-27T00:13:46.908Z,24.17
2022-11-27T00:16:14.452Z,25.58
2022-11-27T00:18:41.963Z,25.27
2022-11-27T00:21:11.832Z,25.88
2022-11-27T00:23:39.236Z,25.50
2022-11-27T00:26:07.040Z,26.58
2022-11-27T00:28:34.569Z,28.10
2022-11-27T00:31:05.341Z,27.67
2022-11-27T00:33:32.913Z,30.20
2022-11-27T00:36:07.309Z,31.08
2022-11-27T00:38:38.729Z,33.75
2022-11-27T00:41:18.280Z,35.08
2022-11-27T00:43:46.053Z,38.83
2022-11-27T00:46:15.009Z,39.00
2022-11-27T00:48:42.308Z,34.15
2022-11-27T00:51:13.030Z,33.20
2022-11-27T00:53:40.041Z,36.63
2022-11-27T00:56:07.499Z,35.45
2022-11-27T00:58:34.966Z,34.50
2022-11-27T01:01:05.793Z,34.22
2022-11-27T01:03:33.491Z,35.40
2022-11-27T01:06:07.420Z,33.22
2022-11-27T01:08:34.816Z,34.42
2022-11-27T01:11:02.245Z,33.75
2022-11-27T01:13:33.094Z,34.88
2022-11-27T01:16:03.065Z,32.97
2022-11-27T01:18:30.283Z,30.15
2022-11-27T01:20:57.064Z,30.30
2022-11-27T01:23:24.498Z,32.55
2022-11-27T01:25:53.820Z,32.53
2022-11-27T01:28:22.216Z,34.55
2022-11-27T01:30:49.798Z,29.98
2022-11-27T01:33:17.264Z,29.27
2022-11-27T01:35:43.981Z,28.38
2022-11-27T01:38:10.708Z,28.35
2022-11-27T01:40:37.396Z,30.10
2022-11-27T01:43:04.076Z,27.38
2022-11-27T01:45:30.874Z,28.55
2022-11-27T01:48:01.634Z,26.00
2022-11-27T01:50:35.805Z,27.08
2022-11-27T01:53:11.544Z,28.38
2022-11-27T01:55:42.961Z,27.13
2022-11-27T01:58:20.348Z,26.90
2022-11-27T02:00:47.018Z,26.80
2022-11-27T02:03:13.801Z,27.33
2022-11-27T02:05:40.437Z,26.02
2022-11-27T02:08:10.789Z,27.13
2022-11-27T02:10:46.232Z,26.63
2022-11-27T02:13:21.668Z,26.65
2022-11-27T02:15:56.525Z,22.60
2022-11-27T02:18:42.400Z,25.48
2022-11-27T02:21:39.345Z,27.80
2022-11-27T02:24:09.061Z,26.20
2022-11-27T02:26:52.064Z,26.65
2022-11-27T02:29:23.065Z,26.55
2022-11-27T02:32:08.406Z,26.80
2022-11-27T02:35:10.161Z,26.95
2022-11-27T02:37:48.504Z,27.33
2022-11-27T02:40:30.994Z,26.58
2022-11-27T02:43:18.012Z,27.85
2022-11-27T02:45:48.491Z,26.52
2022-11-27T02:48:20.344Z,26.48
2022-11-27T02:50:49.696Z,28.13
2022-11-27T02:53:22.976Z,27.05
2022-11-27T02:55:51.976Z,26.45
2022-11-27T02:58:22.320Z,26.02
2022-11-27T03:00:50.644Z,27.20
2022-11-27T03:03:22.324Z,25.88
2022-11-27T03:05:52.420Z,25.45
2022-11-27T03:08:39.190Z,26.20
2022-11-27T03:11:09.386Z,24.85
2022-11-27T03:13:57.196Z,28.15
2022-11-27T03:16:50.105Z,29.05
2022-11-27T03:19:26.516Z,29.95
2022-11-27T03:21:56.657Z,29.67
2022-11-27T03:24:24.345Z,28.13
2022-11-27T03:26:51.662Z,27.17
2022-11-27T03:29:23.658Z,29.10
2022-11-27T03:31:50.325Z,29.55
2022-11-27T03:34:17.630Z,28.85
2022-11-27T03:36:45.876Z,28.15
2022-11-27T03:39:12.869Z,27.80
2022-11-27T03:41:57.777Z,28.20
2022-11-27T03:44:40.834Z,28.67
2022-11-27T03:47:35.676Z,27.75
2022-11-27T03:50:02.392Z,25.92
2022-11-27T03:52:35.144Z,23.40
2022-11-27T03:55:12.457Z,24.52
2022-11-27T03:58:00.612Z,25.27
2022-11-27T04:00:32.143Z,27.50
2022-11-27T04:02:58.986Z,24.45
2022-11-27T04:05:26.170Z,27.15
2022-11-27T04:07:52.993Z,26.75
2022-11-27T04:10:19.819Z,27.38
2022-11-27T04:12:47.016Z,27.23
2022-11-27T04:15:13.800Z,28.00
2022-11-27T04:17:40.675Z,27.65
2022-11-27T04:20:08.129Z,27.10
2022-11-27T04:22:34.788Z,26.05
2022-11-27T04:25:01.593Z,25.67
2022-11-27T04:27:28.408Z,25.05
2022-11-27T04:29:55.211Z,24.73
2022-11-27T04:32:22.237Z,25.73
2022-11-27T04:34:48.964Z,25.00
2022-11-27T04:37:15.696Z,27.08
2022-11-27T04:39:42.452Z,23.88
2022-11-27T04:42:09.748Z,25.92
2022-11-27T04:44:36.544Z,26.40
2022-11-27T04:47:03.534Z,27.17
2022-11-27T04:49:30.367Z,25.38
2022-11-27T04:51:56.944Z,27.95
2022-11-27T04:54:23.787Z,27.08
2022-11-27T04:56:50.443Z,27.50
2022-11-27T04:59:17.153Z,27.40
2022-11-27T05:01:43.900Z,27.60
2022-11-27T05:04:10.635Z,27.15
2022-11-27T05:06:37.508Z,27.45
2022-11-27T05:09:04.242Z,27.30
2022-11-27T05:11:32.027Z,25.23
2022-11-27T05:14:19.636Z,28.65
2022-11-27T05:16:58.140Z,27.88
2022-11-27T05:19:28.652Z,28.08
2022-11-27T05:21:55.425Z,30.67
2022-11-27T05:24:24.737Z,28.33
2022-11-27T05:26:52.125Z,29.13
2022-11-27T05:29:18.803Z,30.73
2022-11-27T05:31:46.030Z,29.63
2022-11-27T05:34:13.268Z,30.63
2022-11-27T05:36:40.048Z,28.30
2022-11-27T05:39:08.483Z,28.90
2022-11-27T05:41:37.481Z,31.40
2022-11-27T05:44:05.183Z,29.00
2022-11-27T05:46:32.287Z,31.23
2022-11-27T05:48:59.344Z,29.02
2022-11-27T05:51:26.055Z,29.98
2022-11-27T05:53:52.781Z,28.48
2022-11-27T05:56:19.730Z,30.85
2022-11-27T05:58:48.088Z,31.67
2022-11-27T06:01:17.051Z,28.48
2022-11-27T06:03:43.820Z,29.40
2022-11-27T06:06:14.150Z,30.42
2022-11-27T06:08:41.804Z,30.70
2022-11-27T06:11:11.047Z,29.63
2022-11-27T06:13:38.153Z,30.20
2022-11-27T06:16:11.197Z,29.17
2022-11-27T06:18:38.083Z,28.67
2022-11-27T06:21:09.827Z,27.02
2022-11-27T06:23:36.973Z,28.33
2022-11-27T06:26:30.383Z,29.35
2022-11-27T06:28:59.196Z,28.48
2022-11-27T06:31:28.742Z,27.65
2022-11-27T06:33:56.250Z,27.63
2022-11-27T06:36:27.591Z,28.13
2022-11-27T06:38:54.293Z,26.58
2022-11-27T06:41:24.825Z,27.27
2022-11-27T06:43:51.949Z,26.17
2022-11-27T06:46:20.496Z,27.80
2022-11-27T06:48:49.706Z,27.30
2022-11-27T06:51:19.900Z,28.48
2022-11-27T06:53:48.285Z,27.58
2022-11-27T06:56:17.928Z,24.20
2022-11-27T06:58:45.361Z,22.83
2022-11-27T07:01:17.651Z,23.25
2022-11-27T07:03:44.531Z,23.60
2022-11-27T07:06:15.714Z,24.95
2022-11-27T07:08:42.798Z,23.73
2022-11-27T07:11:13.390Z,24.95
2022-11-27T07:13:40.639Z,24.02
2022-11-27T07:16:10.251Z,23.48
2022-11-27T07:18:40.402Z,22.75
2022-11-27T07:21:07.262Z,22.38
2022-11-27T07:23:33.985Z,23.33
2022-11-27T07:26:15.573Z,21.73
2022-11-27T07:28:45.700Z,22.67
2022-11-27T07:31:15.193Z,24.35
2022-11-27T07:33:42.142Z,23.25
2022-11-27T07:36:13.600Z,21.80
2022-11-27T07:38:40.316Z,23.63
2022-11-27T07:41:07.788Z,21.92
2022-11-27T07:43:35.474Z,25.60
2022-11-27T07:46:06.757Z,26.50
2022-11-27T07:48:34.066Z,27.50
2022-11-27T07:51:01.525Z,25.88
2022-11-27T07:53:28.232Z,26.08
2022-11-27T07:55:54.879Z,24.83
2022-11-27T07:58:21.574Z,23.60
2022-11-27T08:00:48.636Z,23.10
2022-11-27T08:03:16.560Z,22.88
2022-11-27T08:05:43.216Z,23.50
2022-11-27T08:08:10.765Z,22.08
2022-11-27T08:10:38.589Z,23.67
2022-11-27T08:13:05.932Z,23.95
2022-11-27T08:15:33.336Z,23.00
2022-11-27T08:18:00.398Z,24.75
2022-11-27T08:20:27.336Z,24.80
2022-11-27T08:22:58.123Z,26.52
2022-11-27T08:25:28.156Z,24.10
2022-11-27T08:27:54.817Z,22.60
2022-11-27T08:30:23.769Z,22.45
2022-11-27T08:32:50.728Z,22.92
2022-11-27T08:35:17.795Z,25.48
2022-11-27T08:37:44.664Z,26.17
2022-11-27T08:40:11.514Z,25.83
2022-11-27T08:42:38.176Z,27.02
2022-11-27T08:45:05.201Z,28.92
2022-11-27T08:47:32.701Z,27.35
2022-11-27T08:49:59.356Z,27.15
2022-11-27T08:52:26.495Z,26.90
2022-11-27T08:54:57.566Z,29.15
2022-11-27T08:57:24.961Z,29.40
2022-11-27T08:59:51.848Z,28.80
2022-11-27T09:02:18.456Z,27.08
2022-11-27T09:04:45.044Z,26.27
2022-11-27T09:07:14.415Z,28.80
2022-11-27T09:09:41.468Z,28.80
2022-11-27T09:12:08.463Z,29.23
2022-11-27T09:14:35.118Z,27.67
2022-11-27T09:17:02.129Z,30.70
2022-11-27T09:19:28.909Z,28.65
2022-11-27T09:21:56.361Z,29.50
2022-11-27T09:24:23.351Z,27.73
2022-11-27T09:26:50.690Z,29.50
2022-11-27T09:29:17.661Z,29.65
2022-11-27T09:31:44.450Z,29.55
2022-11-27T09:34:11.127Z,29.73
2022-11-27T09:36:37.782Z,26.92
2022-11-27T09:39:04.418Z,27.38
2022-11-27T09:41:51.638Z,26.77
2022-11-27T09:44:45.418Z,28.02
2022-11-27T09:47:27.365Z,28.80
2022-11-27T09:50:26.439Z,28.17
2022-11-27T09:53:36.260Z,27.17
2022-11-27T09:56:06.941Z,26.25
2022-11-27T09:58:41.256Z,29.58
2022-11-27T10:01:21.511Z,26.88
2022-11-27T10:03:48.615Z,28.02
2022-11-27T10:06:34.297Z,28.13
2022-11-27T10:09:06.863Z,27.75
2022-11-27T10:12:01.341Z,27.65
2022-11-27T10:14:28.071Z,26.20
2022-11-27T10:17:02.962Z,26.27
2022-11-27T10:19:46.720Z,28.23
2022-11-27T10:22:35.545Z,25.23
2022-11-27T10:25:20.544Z,24.90
2022-11-27T10:28:12.148Z,25.10
2022-11-27T10:30:50.341Z,26.17
2022-11-27T10:33:22.490Z,25.77
2022-11-27T10:38:27.028Z,23.80
2022-11-27T10:41:34.367Z,25.90
2022-11-27T10:44:05.014Z,23.92
2022-11-27T10:49:05.155Z,26.02
2022-11-27T10:51:36.159Z,25.15
2022-11-27T10:54:05.812Z,25.63
2022-11-27T10:56:40.063Z,25.80
2022-11-27T10:59:13.255Z,25.90
2022-11-27T11:01:49.340Z,23.10
2022-11-27T11:04:37.490Z,21.90
2022-11-27T11:07:24.408Z,23.17
2022-11-27T11:09:52.198Z,21.73
2022-11-27T11:12:21.339Z,19.83
2022-11-27T11:14:56.602Z,18.60
2022-11-27T11:17:28.742Z,18.55
2022-11-27T11:22:22.459Z,19.20
2022-11-27T11:24:53.648Z,20.13
2022-11-27T11:27:32.375Z,18.98
2022-11-27T11:30:02.239Z,22.75
2022-11-27T11:32:35.425Z,21.02
2022-11-27T11:35:10.744Z,19.92
2022-11-27T11:37:46.062Z,20.48
2022-11-27T11:40:16.740Z,18.92
2022-11-27T11:42:58.942Z,20.38
2022-11-27T11:45:32.317Z,18.13
2022-11-27T11:48:02.132Z,18.75
2022-11-27T11:50:41.350Z,21.38
2022-11-27T11:53:26.213Z,18.58
2022-11-27T11:56:12.182Z,20.88
2022-11-27T11:58:38.856Z,19.02
2022-11-27T12:01:27.845Z,20.40
2022-11-27T12:04:21.401Z,18.80
2022-11-27T12:07:15.320Z,19.88
2022-11-27T12:10:22.481Z,19.15
2022-11-27T12:13:30.379Z,18.67
2022-11-27T12:16:14.755Z,19.27
2022-11-27T12:19:05.968Z,17.98
2022-11-27T12:21:44.863Z,18.58
2022-11-27T12:24:19.757Z,18.77
2022-11-27T12:26:58.973Z,16.63
2022-11-27T12:29:59.524Z,13.80
2022-11-27T12:33:04.726Z,16.83
2022-11-27T12:35:38.086Z,14.70
2022-11-27T12:38:17.817Z,13.90
2022-11-27T12:41:06.416Z,15.07
2022-11-27T12:43:38.797Z,14.27
2022-11-27T12:48:43.830Z,15.35
2022-11-27T12:51:16.638Z,13.50
2022-11-27T12:53:49.440Z,15.20
2022-11-27T12:56:25.374Z,11.88
2022-11-27T12:59:02.009Z,12.35
2022-11-27T13:01:43.638Z,14.13
2022-11-27T13:04:32.381Z,12.70
2022-11-27T13:07:14.853Z,14.02
2022-11-27T13:12:31.582Z,13.60
2022-11-27T13:15:03.485Z,13.63
2022-11-27T13:17:39.557Z,13.50
2022-11-27T13:20:14.770Z,12.60
2022-11-27T13:22:43.388Z,11.52
2022-11-27T13:25:17.524Z,12.75
2022-11-27T13:27:49.390Z,15.02
2022-11-27T13:30:28.143Z,14.43
2022-11-27T13:33:01.871Z,13.20
2022-11-27T13:35:43.722Z,12.32
2022-11-27T13:38:15.040Z,13.93
2022-11-27T13:40:44.794Z,13.80
2022-11-27T13:43:22.324Z,9.63
2022-11-27T13:45:50.075Z,13.07
2022-11-27T13:48:39.190Z,13.13
2022-11-27T13:51:08.336Z,10.35
2022-11-27T13:53:38.996Z,12.98
2022-11-27T13:56:08.029Z,12.00
2022-11-27T13:58:40.854Z,14.60
2022-11-27T14:01:13.560Z,11.65
2022-11-27T14:03:40.442Z,9.55
2022-11-27T14:06:26.920Z,11.30
2022-11-27T14:09:00.842Z,10.05
2022-11-27T14:11:40.085Z,9.07
2022-11-27T14:14:25.344Z,10.50
2022-11-27T14:16:58.255Z,11.02
2022-11-27T14:19:34.525Z,8.73
2022-11-27T14:22:14.002Z,7.57
2022-11-27T14:24:44.307Z,7.15
2022-11-27T14:27:21.226Z,5.72
2022-11-27T14:29:51.385Z,7.55
2022-11-27T14:32:20.448Z,4.90
2022-11-27T14:34:50.894Z,4.72
2022-11-27T14:37:26.327Z,5.13
2022-11-27T14:39:53.681Z,7.28
2022-11-27T14:42:28.616Z,9.40
2022-11-27T14:45:07.565Z,6.07
2022-11-27T14:47:35.671Z,7.63
2022-11-27T14:50:04.117Z,8.25
2022-11-27T14:52:31.738Z,7.05
2022-11-27T14:55:00.539Z,4.22
2022-11-27T14:57:28.947Z,3.67
2022-11-27T15:00:04.805Z,5.30
2022-11-27T15:02:32.622Z,3.65
2022-11-27T15:05:05.738Z,3.17
2022-11-27T15:07:44.106Z,4.35
2022-11-27T15:10:37.053Z,5.13
2022-11-27T15:13:05.789Z,4.85
2022-11-27T15:15:39.688Z,6.80
2022-11-27T15:18:09.069Z,6.03
2022-11-27T15:20:43.166Z,5.63
2022-11-27T15:23:29.000Z,5.85
2022-11-27T15:26:15.872Z,6.15
2022-11-27T15:28:52.623Z,5.45
2022-11-27T15:31:30.372Z,5.45
2022-11-27T15:33:57.505Z,5.72
2022-11-27T15:36:24.650Z,5.32
2022-11-27T15:38:51.725Z,6.47
2022-11-27T15:41:27.124Z,5.00
2022-11-27T15:43:54.437Z,6.13
2022-11-27T15:46:27.717Z,6.50
2022-11-27T15:48:54.441Z,6.38
2022-11-27T15:51:21.207Z,5.93
2022-11-27T15:53:48.871Z,6.45
2022-11-27T15:56:16.217Z,6.53
2022-11-27T15:58:43.742Z,6.32
2022-11-27T16:01:11.339Z,6.07
2022-11-27T16:03:39.940Z,6.78
2022-11-27T16:06:08.484Z,5.10
2022-11-27T16:08:35.545Z,5.05
2022-11-27T16:11:07.541Z,5.50
2022-11-27T16:13:34.772Z,4.50
2022-11-27T16:16:06.524Z,6.43
2022-11-27T16:18:35.388Z,5.50
2022-11-27T16:21:03.817Z,6.38
2022-11-27T16:23:30.776Z,6.95
2022-11-27T16:25:57.784Z,6.75
2022-11-27T16:28:26.084Z,7.53
2022-11-27T16:30:57.302Z,7.00
2022-11-27T16:33:29.030Z,6.78
2022-11-27T16:35:56.416Z,8.70
2022-11-27T16:38:23.645Z,8.60
2022-11-27T16:40:50.632Z,8.77
2022-11-27T16:43:17.381Z,7.68
2022-11-27T16:45:44.267Z,7.40
2022-11-27T16:48:11.196Z,10.27
2022-11-27T16:50:37.943Z,7.10
2022-11-27T16:53:04.563Z,7.05
2022-11-27T16:55:32.042Z,6.40
2022-11-27T16:57:58.622Z,8.13
2022-11-27T17:00:25.203Z,7.78
2022-11-27T17:02:52.765Z,10.55
2022-11-27T17:05:19.577Z,9.02
2022-11-27T17:07:46.415Z,7.22
2022-11-27T17:10:14.169Z,4.80
2022-11-27T17:12:41.343Z,7.65
2022-11-27T17:15:08.525Z,4.65
2022-11-27T17:17:39.985Z,5.22
2022-11-27T17:20:07.650Z,5.22
2022-11-27T17:22:34.845Z,5.45
2022-11-27T17:25:01.579Z,6.30
2022-11-27T17:27:28.382Z,7.57
2022-11-27T17:29:55.011Z,9.25
2022-11-27T17:32:22.051Z,14.77
2022-11-27T17:34:48.832Z,6.30
2022-11-27T17:37:15.526Z,7.07
2022-11-27T17:39:43.846Z,6.53
2022-11-27T17:42:13.860Z,11.55
2022-11-27T17:44:41.955Z,9.02
2022-11-27T17:47:08.583Z,9.45
2022-11-27T17:49:36.162Z,9.48
2022-11-27T17:52:06.408Z,8.80
2022-11-27T17:54:34.305Z,10.50
2022-11-27T17:57:00.915Z,12.35
2022-11-27T17:59:27.713Z,11.65
2022-11-27T18:01:54.342Z,10.13
2022-11-27T18:04:21.339Z,9.18
2022-11-27T18:06:47.892Z,7.25
2022-11-27T18:09:14.713Z,6.68
2022-11-27T18:11:41.340Z,6.57
2022-11-27T18:14:08.111Z,6.57
2022-11-27T18:16:38.972Z,7.20
2022-11-27T18:19:09.711Z,7.50
2022-11-27T18:21:37.190Z,7.07
2022-11-27T18:27:10.187Z,5.90
2022-11-27T18:29:45.845Z,6.80
2022-11-27T18:32:14.731Z,6.45
2022-11-27T18:34:42.443Z,5.70
2022-11-27T18:37:10.020Z,6.25
2022-11-27T18:39:37.755Z,5.97
2022-11-27T18:42:05.926Z,6.63
2022-11-27T18:44:34.694Z,6.55
2022-11-27T18:47:07.256Z,6.88
2022-11-27T18:49:33.843Z,5.47
2022-11-27T18:52:00.557Z,6.55
2022-11-27T18:54:28.001Z,5.78
2022-11-27T18:56:55.235Z,5.68
2022-11-27T18:59:22.064Z,5.75
2022-11-27T19:01:48.709Z,5.57
2022-11-27T19:04:15.957Z,5.72
2022-11-27T19:06:43.292Z,5.75
2022-11-27T19:09:11.595Z,6.90
2022-11-27T19:11:38.942Z,6.40
2022-11-27T19:14:06.788Z,7.95
2022-11-27T19:16:46.763Z,7.13
2022-11-27T19:19:52.895Z,8.00
2022-11-27T19:22:03.012Z,7.15
2022-11-27T19:24:30.136Z,7.50
2022-11-27T19:26:57.979Z,7.60
2022-11-27T19:29:24.919Z,7.50
2022-11-27T19:31:52.265Z,7.47
2022-11-27T19:34:19.537Z,7.10
2022-11-27T19:36:46.988Z,6.75
2022-11-27T19:39:14.964Z,8.75
2022-11-27T19:41:43.428Z,7.18
2022-11-27T19:44:13.014Z,6.15
2022-11-27T19:46:41.461Z,7.38
2022-11-27T19:49:13.792Z,5.85
2022-11-27T19:51:41.327Z,6.57
2022-11-27T19:54:10.563Z,6.38
2022-11-27T19:56:40.099Z,6.00
2022-11-27T19:59:07.538Z,6.47
2022-11-27T20:01:34.402Z,5.82
2022-11-27T20:04:03.685Z,6.20
2022-11-27T20:06:30.802Z,5.65
2022-11-27T20:09:04.002Z,4.85
2022-11-27T20:11:34.794Z,4.32
2022-11-27T20:14:02.656Z,5.00
2022-11-27T20:16:29.496Z,4.05
2022-11-27T20:18:56.346Z,4.82
2022-11-27T20:21:25.796Z,4.82
2022-11-27T20:23:53.443Z,4.75
2022-11-27T20:26:24.122Z,5.43
2022-11-27T20:28:51.252Z,6.90
2022-11-27T20:31:26.275Z,6.63
2022-11-27T20:33:56.404Z,6.93
2022-11-27T20:36:24.737Z,7.38
2022-11-27T20:38:52.768Z,8.05
2022-11-27T20:41:21.278Z,8.05
2022-11-27T20:43:48.777Z,7.95
2022-11-27T20:46:17.113Z,8.07
2022-11-27T20:48:48.578Z,7.95
2022-11-27T20:51:18.622Z,8.90
2022-11-27T20:53:46.512Z,8.73
2022-11-27T20:56:15.559Z,7.93
2022-11-27T20:58:43.969Z,8.35
2022-11-27T21:01:32.400Z,10.45
2022-11-27T21:04:03.568Z,8.63
2022-11-27T21:06:32.286Z,9.07
2022-11-27T21:09:05.073Z,8.63
2022-11-27T21:11:32.343Z,8.05
2022-11-27T21:14:01.916Z,9.32
2022-11-27T21:16:33.070Z,9.05
2022-11-27T21:19:03.361Z,9.52
2022-11-27T21:21:31.297Z,9.45
2022-11-27T21:23:58.478Z,10.27
2022-11-27T21:26:26.174Z,9.10
2022-11-27T21:28:53.409Z,9.80
2022-11-27T21:31:23.234Z,8.98
2022-11-27T21:34:02.279Z,7.93
2022-11-27T21:36:34.173Z,7.55
2022-11-27T21:39:03.053Z,7.72
2022-11-27T21:41:31.610Z,8.13
2022-11-27T21:44:00.850Z,7.22
2022-11-27T21:46:28.104Z,7.88
2022-11-27T21:48:58.237Z,6.45
2022-11-27T21:51:26.500Z,7.25
2022-11-27T21:53:54.535Z,7.57
2022-11-27T21:56:23.932Z,7.18
2022-11-27T21:58:51.488Z,7.60
2022-11-27T22:01:22.068Z,7.13
2022-11-27T22:03:51.493Z,7.63
2022-11-27T22:06:19.270Z,7.85
2022-11-27T22:08:49.516Z,8.07
2022-11-27T22:11:19.740Z,8.65
2022-11-27T22:13:46.887Z,10.43
2022-11-27T22:16:19.790Z,10.02
2022-11-27T22:18:48.089Z,10.45
2022-11-27T22:21:16.066Z,10.95
2022-11-27T22:23:43.619Z,9.77
2022-11-27T22:26:13.399Z,9.73
2022-11-27T22:28:40.176Z,11.52
2022-11-27T22:31:14.812Z,12.07
2022-11-27T22:33:42.930Z,11.25
2022-11-27T22:36:16.646Z,10.73
2022-11-27T22:38:45.510Z,9.25
2022-11-27T22:41:14.057Z,7.93
2022-11-27T22:43:41.665Z,8.13
2022-11-27T22:46:21.054Z,7.03
2022-11-27T22:48:47.966Z,6.60
2022-11-27T22:51:14.884Z,8.50
2022-11-27T22:53:41.449Z,8.80
2022-11-27T22:56:11.895Z,6.50
2022-11-27T22:58:42.162Z,5.32
2022-11-27T23:01:29.201Z,5.15
2022-11-27T23:03:56.081Z,5.05
2022-11-27T23:06:23.942Z,4.35
2022-11-27T23:08:51.596Z,5.05
2022-11-27T23:11:24.041Z,4.05
2022-11-27T23:13:52.411Z,4.25
2022-11-27T23:16:20.263Z,5.32
2022-11-27T23:18:47.089Z,4.80
2022-11-27T23:21:21.076Z,5.40
2022-11-27T23:23:48.098Z,5.72
2022-11-27T23:26:18.493Z,6.03
2022-11-27T23:28:46.560Z,5.60
2022-11-27T23:31:30.052Z,6.57
2022-11-27T23:33:57.434Z,5.72
2022-11-27T23:36:24.180Z,7.55
2022-11-27T23:38:50.830Z,10.18
2022-11-27T23:41:23.368Z,9.60
2022-11-27T23:43:51.349Z,10.05
2022-11-27T23:46:20.414Z,9.73
2022-11-27T23:48:47.452Z,9.88
2022-11-27T23:51:18.330Z,9.90
2022-11-27T23:53:45.617Z,10.05
2022-11-27T23:56:18.200Z,9.75
2022-11-27T23:58:47.553Z,8.15
